Korsakov — UBDI4 — position and weather

sailwx.info

Track history (hours):
 
Tides and Currents Weather Stations Pressure Air Temp Water Temp Dewpoint Dewpoint Depression Visibility Wind Speed Wind Dir Waves Ship Positions

Korsakov

Last reported at 2017-Dec-15 09:58 UTC. Time now 2017-Dec-15 10:26 UTC.
Position N 44°36' E 037°53'.

Length 77 m; draft 4.8 m.

Type: Tanker. MMSI: 273353940.

Date/timePositionNaut miles runAvg speedWind from/ knotsBaromVisibWave heightAir tempDewpointWater temp
2017-Dec-15 09:58N 44°36' E 037°53'0 0.0
2017-Dec-15 09:25N 44°36' E 037°53'0 0.0
2017-Dec-15 08:58N 44°36' E 037°53'0 0.0
2017-Dec-15 08:28N 44°36' E 037°53'0 0.0
2017-Dec-15 07:58N 44°36' E 037°53'0 0.0
2017-Dec-15 07:28N 44°36' E 037°53'0 0.0
2017-Dec-15 06:58N 44°36' E 037°53'0 0.0
2017-Dec-15 06:28N 44°36' E 037°53'0 0.0
2017-Dec-15 05:58N 44°36' E 037°53'0 0.0
2017-Dec-15 05:28N 44°36' E 037°53'0 0.0
2017-Dec-15 04:58N 44°36' E 037°53'0 0.0
2017-Dec-15 03:52N 44°36' E 037°53'0 0.0
2017-Dec-15 02:28N 44°36' E 037°53'0 0.0
2017-Dec-15 00:58N 44°36' E 037°53'0 0.0
2017-Dec-15 00:28N 44°36' E 037°53'2 0.3
2017-Dec-14 18:28N 44°36' E 037°56'0 0.0
2017-Dec-14 17:58N 44°36' E 037°56'0 0.0
2017-Dec-14 17:28N 44°36' E 037°56'0 0.0
2017-Dec-14 16:55N 44°36' E 037°56'0 0.0
2017-Dec-14 16:28N 44°36' E 037°56'0 0.0
2017-Dec-14 15:58N 44°36' E 037°56'0 0.0
2017-Dec-14 14:58N 44°36' E 037°56'1 1.8
2017-Dec-14 14:25N 44°35' E 037°55'0 0.0
2017-Dec-14 13:55N 44°35' E 037°55'0 0.0
2017-Dec-14 13:28N 44°35' E 037°55'0 0.0
2017-Dec-14 12:58N 44°35' E 037°55'0 0.1
2017-Dec-14 12:19N 44°35' E 037°54'0 0.1
2017-Dec-14 11:58N 44°35' E 037°55'0 1.0
2017-Dec-14 11:30N 44°36' E 037°55'1 1.2
2017-Dec-14 10:58N 44°36' E 037°56'0 0.0
2017-Dec-14 10:28N 44°36' E 037°56'0 0.1
2017-Dec-14 09:58N 44°36' E 037°56'2 3.3
2017-Dec-14 09:30N 44°35' E 037°54'0 0.6
2017-Dec-14 08:58N 44°36' E 037°53'0 0.0
2017-Dec-14 08:28N 44°36' E 037°53'0 0.0
2017-Dec-14 07:58N 44°36' E 037°53'0 0.1
2017-Dec-14 07:28N 44°36' E 037°53'0 0.0
2017-Dec-14 06:58N 44°36' E 037°53'0 0.0
2017-Dec-14 06:28N 44°36' E 037°53'0 0.0
2017-Dec-14 05:58N 44°36' E 037°53'0 0.0
2017-Dec-14 05:28N 44°36' E 037°53'0 0.0
2017-Dec-14 04:58N 44°36' E 037°53'0 0.0
2017-Dec-14 04:28N 44°36' E 037°53'0 0.0
2017-Dec-14 03:55N 44°36' E 037°53'0 0.0
2017-Dec-14 03:30N 44°35' E 037°53'0 0.2
2017-Dec-14 03:00N 44°36' E 037°53'2 3.3
2017-Dec-14 02:30N 44°36' E 037°55'0 0.6
2017-Dec-14 01:58N 44°36' E 037°56'0 0.0
2017-Dec-14 01:28N 44°36' E 037°56'0 0.0
2017-Dec-14 00:58N 44°36' E 037°56'0 0.0
2017-Dec-14 00:28N 44°36' E 037°56'0 0.1
2017-Dec-13 23:58N 44°36' E 037°56'0 0.0
2017-Dec-13 23:28N 44°36' E 037°56'0 0.0
2017-Dec-13 22:58N 44°36' E 037°56'0 0.0
2017-Dec-13 22:28N 44°36' E 037°56'0 0.0
2017-Dec-13 21:58N 44°36' E 037°56'0 0.0
2017-Dec-13 21:28N 44°36' E 037°56'0 0.0
2017-Dec-13 20:58N 44°36' E 037°56'0 0.0
2017-Dec-13 20:28N 44°36' E 037°56'0 0.0
2017-Dec-13 19:58N 44°36' E 037°56'0 0.0
2017-Dec-13 19:28N 44°36' E 037°56'0 0.0
2017-Dec-13 18:58N 44°36' E 037°56'0 0.0
2017-Dec-13 18:25N 44°36' E 037°56'0 0.0
2017-Dec-13 17:58N 44°36' E 037°56'0 0.0
2017-Dec-13 17:28N 44°36' E 037°56'0 0.2
2017-Dec-13 17:00N 44°36' E 037°56'2 4.6
2017-Dec-13 16:30N 44°37' E 037°53'4 7.0
2017-Dec-13 16:00N 44°40' E 037°50'3 5.1
2017-Dec-13 15:31N 44°43' E 037°50'0 0.1
2017-Dec-13 14:58N 44°43' E 037°51'0 0.0
2017-Dec-13 14:28N 44°43' E 037°51'0 0.0
2017-Dec-13 13:58N 44°43' E 037°51'0 0.0
2017-Dec-13 13:28N 44°43' E 037°51'0 0.0
2017-Dec-13 12:58N 44°43' E 037°51'0 0.0
2017-Dec-13 12:28N 44°43' E 037°51'0 0.0
2017-Dec-13 11:58N 44°43' E 037°51'0 0.0
2017-Dec-13 11:28N 44°43' E 037°51'0 0.0
2017-Dec-13 10:58N 44°43' E 037°51'0 0.0
2017-Dec-13 10:28N 44°43' E 037°51'0 0.0
2017-Dec-13 09:58N 44°43' E 037°51'0 0.0
2017-Dec-13 09:28N 44°43' E 037°51'0 0.0
2017-Dec-13 08:58N 44°43' E 037°51'0 0.0
2017-Dec-13 08:28N 44°43' E 037°51'0 0.0
2017-Dec-13 07:58N 44°43' E 037°51'0 0.0
2017-Dec-13 07:28N 44°43' E 037°51'0 0.0
2017-Dec-13 06:58N 44°43' E 037°51'0 0.0
2017-Dec-13 06:28N 44°43' E 037°51'1 3.2
2017-Dec-13 06:01N 44°42' E 037°49'0 0.3
2017-Dec-13 05:28N 44°42' E 037°49'0 0.0
2017-Dec-13 04:58N 44°42' E 037°49'0 0.0
2017-Dec-13 04:28N 44°42' E 037°49'0 0.0
2017-Dec-13 03:58N 44°42' E 037°49'0 0.0
2017-Dec-13 03:28N 44°42' E 037°49'0 0.0
2017-Dec-13 02:58N 44°42' E 037°49'0 0.0
2017-Dec-13 02:28N 44°42' E 037°49'0 0.0
2017-Dec-13 01:58N 44°42' E 037°49'0 0.0
2017-Dec-13 01:28N 44°42' E 037°49'0 0.0
2017-Dec-13 00:58N 44°42' E 037°49'0 0.0
2017-Dec-13 00:28N 44°42' E 037°49'0 0.0
2017-Dec-12 23:58N 44°42' E 037°49'0 0.0
2017-Dec-12 23:28N 44°42' E 037°49'0 0.0
2017-Dec-12 22:58N 44°42' E 037°49'0 0.0
2017-Dec-12 22:28N 44°42' E 037°49'0 0.0
2017-Dec-12 21:58N 44°42' E 037°49'0 0.0
2017-Dec-12 21:28N 44°42' E 037°49'0 0.0
2017-Dec-12 20:58N 44°42' E 037°49'0 0.0
2017-Dec-12 20:28N 44°42' E 037°49'0 0.0
2017-Dec-12 19:58N 44°42' E 037°49'0 0.0
2017-Dec-12 19:28N 44°42' E 037°49'0 0.0
2017-Dec-12 18:58N 44°42' E 037°49'0 0.0
2017-Dec-12 18:28N 44°42' E 037°49'0 0.0
2017-Dec-12 17:58N 44°42' E 037°49'0 0.0
2017-Dec-12 17:28N 44°42' E 037°49'0 0.0
2017-Dec-12 16:58N 44°42' E 037°49'0 0.0
2017-Dec-12 16:28N 44°42' E 037°49'0 0.0
2017-Dec-12 15:58N 44°42' E 037°49'0 0.0
2017-Dec-12 15:28N 44°42' E 037°49'0 0.0
2017-Dec-12 14:58N 44°42' E 037°49'0 0.0
2017-Dec-12 14:28N 44°42' E 037°49'0 0.0
2017-Dec-12 13:58N 44°42' E 037°49'0 0.0
2017-Dec-12 13:28N 44°42' E 037°49'0 0.0
2017-Dec-12 12:58N 44°42' E 037°49'0 0.0
2017-Dec-12 12:28N 44°42' E 037°49'0 0.0
2017-Dec-12 11:58N 44°42' E 037°49'0 0.0
2017-Dec-12 11:28N 44°42' E 037°49'0 0.0
2017-Dec-12 10:58N 44°42' E 037°49'0 0.0
2017-Dec-12 10:28N 44°42' E 037°49'0 0.0
2017-Dec-12 09:58N 44°42' E 037°49'0 0.0
2017-Dec-12 09:28N 44°42' E 037°49'0 0.0
2017-Dec-12 08:58N 44°42' E 037°49'0 0.3
2017-Dec-12 08:30N 44°42' E 037°49'2 3.6
2017-Dec-12 08:00N 44°44' E 037°48'0 0.5
2017-Dec-12 07:28N 44°44' E 037°47'0 0.0
2017-Dec-12 06:55N 44°44' E 037°47'0 0.0
2017-Dec-12 06:24N 44°44' E 037°47'0 0.0
2017-Dec-12 06:00N 44°44' E 037°47'0 0.0
2017-Dec-12 05:30N 44°44' E 037°47'0 0.0
2017-Dec-12 05:00N 44°44' E 037°47'0 0.0
2017-Dec-12 04:30N 44°44' E 037°47'0 0.0
2017-Dec-12 04:00N 44°44' E 037°47'0 0.0
2017-Dec-12 03:30N 44°44' E 037°47'0 0.0
2017-Dec-12 03:00N 44°44' E 037°47'0 0.0
2017-Dec-12 02:30N 44°44' E 037°47'0 0.0
2017-Dec-12 02:00N 44°44' E 037°47'0 0.0
2017-Dec-12 01:30N 44°44' E 037°47'0 0.0
2017-Dec-12 01:00N 44°44' E 037°47'0 0.0
2017-Dec-12 00:30N 44°44' E 037°47'0 0.0
2017-Dec-12 00:00N 44°44' E 037°47'0 0.0
2017-Dec-11 23:30N 44°44' E 037°47'0 0.0
2017-Dec-11 23:00N 44°44' E 037°47'0 0.0
2017-Dec-11 22:30N 44°44' E 037°47'0 0.0
2017-Dec-11 22:00N 44°44' E 037°47'0 0.0
2017-Dec-11 21:30N 44°44' E 037°47'0 0.0
2017-Dec-11 21:00N 44°44' E 037°47'0 0.0
2017-Dec-11 20:30N 44°44' E 037°47'0 0.0
2017-Dec-11 20:00N 44°44' E 037°47'0 0.0
2017-Dec-11 19:30N 44°44' E 037°47'0 0.0
2017-Dec-11 19:00N 44°44' E 037°47'0 0.0
2017-Dec-11 18:30N 44°44' E 037°47'0 0.0
2017-Dec-11 18:00N 44°44' E 037°47'0 0.0
2017-Dec-11 17:30N 44°44' E 037°47'0 0.0
2017-Dec-11 17:00N 44°44' E 037°47'0 0.0
2017-Dec-11 16:30N 44°44' E 037°47'0 0.0
2017-Dec-11 16:00N 44°44' E 037°47'0 0.0
2017-Dec-11 15:30N 44°44' E 037°47'0 0.0
2017-Dec-11 15:00N 44°44' E 037°47'0 0.0
2017-Dec-11 14:30N 44°44' E 037°47'0 0.0
2017-Dec-11 14:00N 44°44' E 037°47'0 0.1
2017-Dec-11 13:30N 44°44' E 037°47'2 3.3
2017-Dec-11 13:00N 44°42' E 037°48'0 0.9
2017-Dec-11 12:30N 44°42' E 037°49'0 0.0
2017-Dec-11 12:00N 44°42' E 037°49'0 0.0
2017-Dec-11 11:30N 44°42' E 037°49'0 0.0
2017-Dec-11 11:00N 44°42' E 037°49'0 0.0
2017-Dec-11 10:30N 44°42' E 037°49'0 0.0
2017-Dec-11 10:00N 44°42' E 037°49'0 0.0
2017-Dec-11 09:30N 44°42' E 037°49'0 0.0
2017-Dec-11 09:00N 44°42' E 037°49'0 0.1
2017-Dec-11 08:30N 44°42' E 037°48'0 0.0
2017-Dec-11 08:00N 44°42' E 037°48'0 0.0
2017-Dec-11 07:30N 44°42' E 037°48'0 0.2
2017-Dec-11 07:00N 44°42' E 037°49'0 0.1
2017-Dec-11 06:30N 44°42' E 037°49'0 0.1
2017-Dec-11 06:00N 44°42' E 037°49'0 0.0
2017-Dec-11 05:30N 44°42' E 037°49'0 0.1
2017-Dec-11 05:00N 44°42' E 037°49'0 0.0
2017-Dec-11 04:30N 44°42' E 037°49'0 0.1
2017-Dec-11 04:00N 44°42' E 037°49'0 0.0
2017-Dec-11 03:27N 44°42' E 037°49'0 0.0
2017-Dec-11 03:00N 44°42' E 037°49'0 0.0
2017-Dec-11 02:30N 44°42' E 037°49'0 0.0
2017-Dec-11 02:00N 44°42' E 037°49'0 0.0
2017-Dec-11 01:30N 44°42' E 037°49'0 0.0
2017-Dec-11 01:00N 44°42' E 037°49'0 0.0
2017-Dec-11 00:30N 44°42' E 037°49'0 0.0
2017-Dec-11 00:00N 44°42' E 037°49'0 0.0
2017-Dec-10 23:30N 44°42' E 037°49'0 0.2
2017-Dec-10 23:00N 44°42' E 037°49'0 0.0
2017-Dec-10 22:30N 44°42' E 037°49'0 0.0
2017-Dec-10 22:00N 44°42' E 037°49'0 0.0
2017-Dec-10 21:30N 44°42' E 037°49'0 0.0
2017-Dec-10 21:00N 44°42' E 037°49'0 0.0
2017-Dec-10 20:12N 44°42' E 037°49'0 0.1
2017-Dec-10 20:00N 44°42' E 037°49'0 0.0
2017-Dec-10 19:30N 44°42' E 037°49'0 0.0
2017-Dec-10 19:00N 44°42' E 037°49'0 0.0
2017-Dec-10 18:30N 44°42' E 037°49'0 0.0
2017-Dec-10 18:00N 44°42' E 037°49'0 0.1
2017-Dec-10 17:30N 44°42' E 037°48'0 0.0
2017-Dec-10 17:00N 44°42' E 037°48'0 0.0
2017-Dec-10 16:30N 44°42' E 037°48'0 0.0
2017-Dec-10 16:00N 44°42' E 037°48'0 0.0
2017-Dec-10 15:30N 44°42' E 037°48'0 0.0
2017-Dec-10 15:00N 44°42' E 037°48'0 0.0
2017-Dec-10 14:30N 44°42' E 037°48'0 0.0
2017-Dec-10 14:00N 44°42' E 037°48'0 0.0
2017-Dec-10 13:30N 44°42' E 037°48'0 0.0
2017-Dec-10 13:00N 44°42' E 037°48'0 0.0
2017-Dec-10 12:30N 44°42' E 037°48'0 0.0
2017-Dec-10 12:00N 44°42' E 037°48'0 0.0
2017-Dec-10 11:30N 44°42' E 037°48'0 0.0
2017-Dec-10 11:00N 44°42' E 037°48'0 0.0
2017-Dec-10 10:30N 44°42' E 037°48'0 0.0
2017-Dec-10 10:00N 44°42' E 037°48'0 0.0
2017-Dec-10 09:30N 44°42' E 037°48'0 0.0
2017-Dec-10 09:00N 44°42' E 037°48'0 0.0
2017-Dec-10 08:30N 44°42' E 037°48'0 0.0
2017-Dec-10 08:00N 44°42' E 037°48'0 0.0
2017-Dec-10 07:30N 44°42' E 037°48'0 0.0
2017-Dec-10 07:00N 44°42' E 037°48'0 0.0
2017-Dec-10 06:30N 44°42' E 037°48'0 0.0
2017-Dec-10 06:00N 44°42' E 037°48'0 0.0
2017-Dec-10 05:30N 44°42' E 037°48'0 0.0
2017-Dec-10 05:00N 44°42' E 037°48'0 0.0
2017-Dec-10 04:30N 44°42' E 037°48'0 0.0
2017-Dec-10 04:00N 44°42' E 037°48'0 0.0
2017-Dec-10 03:30N 44°42' E 037°48'0 0.0
2017-Dec-10 03:00N 44°42' E 037°48'0 0.0
2017-Dec-10 02:30N 44°42' E 037°48'0 0.0
2017-Dec-10 02:00N 44°42' E 037°48'0 0.0
2017-Dec-10 01:30N 44°42' E 037°48'0 0.0
2017-Dec-10 01:00N 44°42' E 037°48'0 0.0
2017-Dec-10 00:30N 44°42' E 037°48'0 0.0
2017-Dec-10 00:00N 44°42' E 037°48'0 0.0
2017-Dec-09 23:30N 44°42' E 037°48'0 0.0
2017-Dec-09 23:00N 44°42' E 037°48'0 0.0
2017-Dec-09 22:30N 44°42' E 037°48'0 0.0
2017-Dec-09 21:24N 44°42' E 037°48'0 0.0
2017-Dec-09 21:00N 44°42' E 037°48'0 0.0
2017-Dec-09 20:30N 44°42' E 037°48'0 0.0
2017-Dec-09 20:00N 44°42' E 037°48'0 0.0
2017-Dec-09 19:30N 44°42' E 037°48'0 0.0
2017-Dec-09 19:00N 44°42' E 037°48'0 0.0
2017-Dec-09 18:30N 44°42' E 037°48'0 0.0
2017-Dec-09 18:00N 44°42' E 037°48'0 0.0
2017-Dec-09 17:30N 44°42' E 037°48'0 0.0
2017-Dec-09 17:00N 44°42' E 037°48'0 0.0
2017-Dec-09 16:30N 44°42' E 037°48'0 0.0
2017-Dec-09 16:00N 44°42' E 037°48'0 0.0
2017-Dec-09 15:30N 44°42' E 037°48'0 0.0
2017-Dec-09 15:00N 44°42' E 037°48'0 0.0
2017-Dec-09 14:30N 44°42' E 037°48'0 0.0
2017-Dec-09 14:00N 44°42' E 037°48'0 0.0
2017-Dec-09 13:30N 44°42' E 037°48'0 0.0
2017-Dec-09 13:00N 44°42' E 037°48'0 0.0
2017-Dec-09 12:30N 44°42' E 037°48'0 0.0
2017-Dec-09 12:00N 44°42' E 037°48'0 0.0
2017-Dec-09 11:30N 44°42' E 037°48'0 0.0
2017-Dec-09 11:00N 44°42' E 037°48'0 0.0
2017-Dec-09 10:30N 44°42' E 037°48'0 0.0
2017-Dec-09 10:00N 44°42' E 037°48'0 0.0
2017-Dec-09 09:30N 44°42' E 037°48'0 0.0
2017-Dec-09 09:00N 44°42' E 037°48'0 0.0
2017-Dec-09 08:30N 44°42' E 037°48'0 0.0
2017-Dec-09 08:00N 44°42' E 037°48'0 0.0
2017-Dec-09 07:30N 44°42' E 037°48'0 0.0
2017-Dec-09 07:00N 44°42' E 037°48'0 0.0
2017-Dec-09 06:30N 44°42' E 037°49'0 0.0
2017-Dec-09 06:00N 44°42' E 037°48'0 0.0
2017-Dec-09 05:30N 44°42' E 037°49'0 0.0
2017-Dec-09 05:00N 44°42' E 037°49'0 0.0
2017-Dec-09 04:30N 44°42' E 037°49'0 0.0
2017-Dec-09 04:00N 44°42' E 037°49'0 0.0
2017-Dec-09 03:30N 44°42' E 037°49'0 0.0
2017-Dec-09 03:00N 44°42' E 037°49'0 0.0
2017-Dec-09 02:30N 44°42' E 037°48'0 0.0
2017-Dec-09 02:00N 44°42' E 037°49'0 0.1
2017-Dec-09 01:30N 44°42' E 037°49'0 0.0
2017-Dec-09 01:00N 44°42' E 037°49'0 0.0
2017-Dec-09 00:30N 44°42' E 037°49'0 0.0
2017-Dec-09 00:00N 44°42' E 037°49'0 0.0
2017-Dec-08 23:30N 44°42' E 037°49'0 0.0
2017-Dec-08 23:00N 44°42' E 037°49'0 0.0
2017-Dec-08 22:30N 44°42' E 037°49'0 0.0
2017-Dec-08 21:57N 44°42' E 037°49'0 0.0
2017-Dec-08 21:30N 44°42' E 037°49'0 0.0
2017-Dec-08 21:00N 44°42' E 037°49'0 0.0
2017-Dec-08 20:30N 44°42' E 037°49'0 0.0
2017-Dec-08 20:00N 44°42' E 037°49'0 0.0
2017-Dec-08 19:30N 44°42' E 037°49'0 0.0
2017-Dec-08 19:00N 44°42' E 037°49'0 0.0
2017-Dec-08 18:30N 44°42' E 037°49'0 0.0
2017-Dec-08 18:00N 44°42' E 037°49'0 0.0
2017-Dec-08 17:30N 44°42' E 037°49'0 0.0
2017-Dec-08 16:54N 44°42' E 037°49'0 0.0
2017-Dec-08 16:30N 44°42' E 037°49'0 0.0
2017-Dec-08 16:00N 44°42' E 037°49'0 0.0
2017-Dec-08 15:30N 44°42' E 037°49'0 0.0
2017-Dec-08 15:00N 44°42' E 037°49'0 0.0
2017-Dec-08 14:30N 44°42' E 037°49'0 0.2
2017-Dec-08 14:00N 44°42' E 037°48'0 0.0
2017-Dec-08 13:30N 44°42' E 037°48'0 0.1
2017-Dec-08 13:00N 44°42' E 037°49'0 0.0
2017-Dec-08 12:30N 44°42' E 037°49'0 0.1
2017-Dec-08 12:00N 44°42' E 037°49'0 0.0
2017-Dec-08 11:30N 44°42' E 037°48'0 0.0
2017-Dec-08 11:00N 44°42' E 037°49'0 0.0
2017-Dec-08 10:30N 44°42' E 037°48'0 0.1
2017-Dec-08 10:00N 44°42' E 037°48'0 0.0
2017-Dec-08 09:30N 44°42' E 037°49'0 0.0
2017-Dec-08 09:00N 44°42' E 037°49'0 0.0
2017-Dec-08 08:30N 44°42' E 037°49'0 0.0
2017-Dec-08 08:00N 44°42' E 037°49'0 0.0
2017-Dec-08 07:30N 44°42' E 037°49'0 0.0
2017-Dec-08 07:00N 44°42' E 037°49'0 0.1
2017-Dec-08 06:30N 44°42' E 037°49'0 0.0
2017-Dec-08 06:00N 44°42' E 037°49'0 0.0
2017-Dec-08 05:30N 44°42' E 037°49'0 0.0
2017-Dec-08 05:00N 44°42' E 037°49'0 0.0
2017-Dec-08 04:30N 44°42' E 037°49'0 0.0
2017-Dec-08 04:00N 44°42' E 037°49'0 0.0
2017-Dec-08 03:30N 44°42' E 037°49'0 0.0
2017-Dec-08 03:00N 44°42' E 037°49'0 0.0
2017-Dec-08 02:30N 44°42' E 037°49'0 0.0
2017-Dec-08 02:00N 44°42' E 037°49'0 0.0
2017-Dec-08 01:30N 44°42' E 037°49'0 0.0
2017-Dec-08 01:00N 44°42' E 037°49'0 0.0
2017-Dec-08 00:30N 44°42' E 037°49'0 0.0
2017-Dec-08 00:00N 44°42' E 037°49'0 0.0
2017-Dec-07 23:30N 44°42' E 037°49'0 0.0
2017-Dec-07 23:00N 44°42' E 037°49'0 0.0
2017-Dec-07 22:30N 44°42' E 037°49'0 0.1
2017-Dec-07 22:00N 44°42' E 037°49'0 0.1
2017-Dec-07 21:30N 44°42' E 037°49'0 0.0
2017-Dec-07 21:00N 44°42' E 037°49'0 0.1
2017-Dec-07 20:30N 44°42' E 037°49'0 0.0
2017-Dec-07 20:00N 44°42' E 037°49'0 0.0
2017-Dec-07 19:30N 44°42' E 037°49'0 0.0
2017-Dec-07 19:00N 44°42' E 037°49'0 0.0
2017-Dec-07 18:30N 44°42' E 037°49'0 0.0
2017-Dec-07 18:00N 44°42' E 037°49'0 0.0
2017-Dec-07 17:30N 44°42' E 037°49'0 0.0
2017-Dec-07 17:00N 44°42' E 037°49'0 0.0
2017-Dec-07 16:30N 44°42' E 037°49'0 0.0
2017-Dec-07 16:00N 44°42' E 037°49'0 0.0
2017-Dec-07 15:30N 44°42' E 037°49'0 0.0
2017-Dec-07 14:57N 44°42' E 037°49'0 0.7
2017-Dec-07 14:30N 44°42' E 037°49'3 5.2
2017-Dec-07 14:00N 44°39' E 037°50'4 7.0
2017-Dec-07 13:30N 44°37' E 037°46'4 7.1
2017-Dec-07 13:00N 44°35' E 037°41'4 7.6
2017-Dec-07 12:30N 44°36' E 037°36'5 7.4
2017-Dec-07 11:53N 44°37' E 037°30'51 6.6
2017-Dec-07 04:10N 45°08' E 036°32'1 4.4
2017-Dec-07 04:00N 45°09' E 036°33'  
Track history (hours):
 
Tides and Currents Weather Stations Pressure Air Temp Water Temp Dewpoint Dewpoint Depression Visibility Wind Speed Wind Dir Waves Ship Positions

Korsakov

Last reported at 2017-Dec-15 09:58 UTC. Time now 2017-Dec-15 10:26 UTC.
Position N 44°36' E 037°53'.

Length 77 m; draft 4.8 m.

Type: Tanker. MMSI: 273353940.

Date/timePositionNaut miles runAvg speedWind from/ knotsBaromVisibWave heightAir tempDewpointWater temp
2017-Dec-15 09:58N 44°36' E 037°53'0 0.0
2017-Dec-15 09:25N 44°36' E 037°53'0 0.0
2017-Dec-15 08:58N 44°36' E 037°53'0 0.0
2017-Dec-15 08:28N 44°36' E 037°53'0 0.0
2017-Dec-15 07:58N 44°36' E 037°53'0 0.0
2017-Dec-15 07:28N 44°36' E 037°53'0 0.0
2017-Dec-15 06:58N 44°36' E 037°53'0 0.0
2017-Dec-15 06:28N 44°36' E 037°53'0 0.0
2017-Dec-15 05:58N 44°36' E 037°53'0 0.0
2017-Dec-15 05:28N 44°36' E 037°53'0 0.0
2017-Dec-15 04:58N 44°36' E 037°53'0 0.0
2017-Dec-15 03:52N 44°36' E 037°53'0 0.0
2017-Dec-15 02:28N 44°36' E 037°53'0 0.0
2017-Dec-15 00:58N 44°36' E 037°53'0 0.0
2017-Dec-15 00:28N 44°36' E 037°53'2 0.3
2017-Dec-14 18:28N 44°36' E 037°56'0 0.0
2017-Dec-14 17:58N 44°36' E 037°56'0 0.0
2017-Dec-14 17:28N 44°36' E 037°56'0 0.0
2017-Dec-14 16:55N 44°36' E 037°56'0 0.0
2017-Dec-14 16:28N 44°36' E 037°56'0 0.0
2017-Dec-14 15:58N 44°36' E 037°56'0 0.0
2017-Dec-14 14:58N 44°36' E 037°56'1 1.8
2017-Dec-14 14:25N 44°35' E 037°55'0 0.0
2017-Dec-14 13:55N 44°35' E 037°55'0 0.0
2017-Dec-14 13:28N 44°35' E 037°55'0 0.0
2017-Dec-14 12:58N 44°35' E 037°55'0 0.1
2017-Dec-14 12:19N 44°35' E 037°54'0 0.1
2017-Dec-14 11:58N 44°35' E 037°55'0 1.0
2017-Dec-14 11:30N 44°36' E 037°55'1 1.2
2017-Dec-14 10:58N 44°36' E 037°56'0 0.0
2017-Dec-14 10:28N 44°36' E 037°56'0 0.1
2017-Dec-14 09:58N 44°36' E 037°56'2 3.3
2017-Dec-14 09:30N 44°35' E 037°54'0 0.6
2017-Dec-14 08:58N 44°36' E 037°53'0 0.0
2017-Dec-14 08:28N 44°36' E 037°53'0 0.0
2017-Dec-14 07:58N 44°36' E 037°53'0 0.1
2017-Dec-14 07:28N 44°36' E 037°53'0 0.0
2017-Dec-14 06:58N 44°36' E 037°53'0 0.0
2017-Dec-14 06:28N 44°36' E 037°53'0 0.0
2017-Dec-14 05:58N 44°36' E 037°53'0 0.0
2017-Dec-14 05:28N 44°36' E 037°53'0 0.0
2017-Dec-14 04:58N 44°36' E 037°53'0 0.0
2017-Dec-14 04:28N 44°36' E 037°53'0 0.0
2017-Dec-14 03:55N 44°36' E 037°53'0 0.0
2017-Dec-14 03:30N 44°35' E 037°53'0 0.2
2017-Dec-14 03:00N 44°36' E 037°53'2 3.3
2017-Dec-14 02:30N 44°36' E 037°55'0 0.6
2017-Dec-14 01:58N 44°36' E 037°56'0 0.0
2017-Dec-14 01:28N 44°36' E 037°56'0 0.0
2017-Dec-14 00:58N 44°36' E 037°56'0 0.0
2017-Dec-14 00:28N 44°36' E 037°56'0 0.1
2017-Dec-13 23:58N 44°36' E 037°56'0 0.0
2017-Dec-13 23:28N 44°36' E 037°56'0 0.0
2017-Dec-13 22:58N 44°36' E 037°56'0 0.0
2017-Dec-13 22:28N 44°36' E 037°56'0 0.0
2017-Dec-13 21:58N 44°36' E 037°56'0 0.0
2017-Dec-13 21:28N 44°36' E 037°56'0 0.0
2017-Dec-13 20:58N 44°36' E 037°56'0 0.0
2017-Dec-13 20:28N 44°36' E 037°56'0 0.0
2017-Dec-13 19:58N 44°36' E 037°56'0 0.0
2017-Dec-13 19:28N 44°36' E 037°56'0 0.0
2017-Dec-13 18:58N 44°36' E 037°56'0 0.0
2017-Dec-13 18:25N 44°36' E 037°56'0 0.0
2017-Dec-13 17:58N 44°36' E 037°56'0 0.0
2017-Dec-13 17:28N 44°36' E 037°56'0 0.2
2017-Dec-13 17:00N 44°36' E 037°56'2 4.6
2017-Dec-13 16:30N 44°37' E 037°53'4 7.0
2017-Dec-13 16:00N 44°40' E 037°50'3 5.1
2017-Dec-13 15:31N 44°43' E 037°50'0 0.1
2017-Dec-13 14:58N 44°43' E 037°51'0 0.0
2017-Dec-13 14:28N 44°43' E 037°51'0 0.0
2017-Dec-13 13:58N 44°43' E 037°51'0 0.0
2017-Dec-13 13:28N 44°43' E 037°51'0 0.0
2017-Dec-13 12:58N 44°43' E 037°51'0 0.0
2017-Dec-13 12:28N 44°43' E 037°51'0 0.0
2017-Dec-13 11:58N 44°43' E 037°51'0 0.0
2017-Dec-13 11:28N 44°43' E 037°51'0 0.0
2017-Dec-13 10:58N 44°43' E 037°51'0 0.0
2017-Dec-13 10:28N 44°43' E 037°51'0 0.0
2017-Dec-13 09:58N 44°43' E 037°51'0 0.0
2017-Dec-13 09:28N 44°43' E 037°51'0 0.0
2017-Dec-13 08:58N 44°43' E 037°51'0 0.0
2017-Dec-13 08:28N 44°43' E 037°51'0 0.0
2017-Dec-13 07:58N 44°43' E 037°51'0 0.0
2017-Dec-13 07:28N 44°43' E 037°51'0 0.0
2017-Dec-13 06:58N 44°43' E 037°51'0 0.0
2017-Dec-13 06:28N 44°43' E 037°51'1 3.2
2017-Dec-13 06:01N 44°42' E 037°49'0 0.3
2017-Dec-13 05:28N 44°42' E 037°49'0 0.0
2017-Dec-13 04:58N 44°42' E 037°49'0 0.0
2017-Dec-13 04:28N 44°42' E 037°49'0 0.0
2017-Dec-13 03:58N 44°42' E 037°49'0 0.0
2017-Dec-13 03:28N 44°42' E 037°49'0 0.0
2017-Dec-13 02:58N 44°42' E 037°49'0 0.0
2017-Dec-13 02:28N 44°42' E 037°49'0 0.0
2017-Dec-13 01:58N 44°42' E 037°49'0 0.0
2017-Dec-13 01:28N 44°42' E 037°49'0 0.0
2017-Dec-13 00:58N 44°42' E 037°49'0 0.0
2017-Dec-13 00:28N 44°42' E 037°49'0 0.0
2017-Dec-12 23:58N 44°42' E 037°49'0 0.0
2017-Dec-12 23:28N 44°42' E 037°49'0 0.0
2017-Dec-12 22:58N 44°42' E 037°49'0 0.0
2017-Dec-12 22:28N 44°42' E 037°49'0 0.0
2017-Dec-12 21:58N 44°42' E 037°49'0 0.0
2017-Dec-12 21:28N 44°42' E 037°49'0 0.0
2017-Dec-12 20:58N 44°42' E 037°49'0 0.0
2017-Dec-12 20:28N 44°42' E 037°49'0 0.0
2017-Dec-12 19:58N 44°42' E 037°49'0 0.0
2017-Dec-12 19:28N 44°42' E 037°49'0 0.0
2017-Dec-12 18:58N 44°42' E 037°49'0 0.0
2017-Dec-12 18:28N 44°42' E 037°49'0 0.0
2017-Dec-12 17:58N 44°42' E 037°49'0 0.0
2017-Dec-12 17:28N 44°42' E 037°49'0 0.0
2017-Dec-12 16:58N 44°42' E 037°49'0 0.0
2017-Dec-12 16:28N 44°42' E 037°49'0 0.0
2017-Dec-12 15:58N 44°42' E 037°49'0 0.0
2017-Dec-12 15:28N 44°42' E 037°49'0 0.0
2017-Dec-12 14:58N 44°42' E 037°49'0 0.0
2017-Dec-12 14:28N 44°42' E 037°49'0 0.0
2017-Dec-12 13:58N 44°42' E 037°49'0 0.0
2017-Dec-12 13:28N 44°42' E 037°49'0 0.0
2017-Dec-12 12:58N 44°42' E 037°49'0 0.0
2017-Dec-12 12:28N 44°42' E 037°49'0 0.0
2017-Dec-12 11:58N 44°42' E 037°49'0 0.0
2017-Dec-12 11:28N 44°42' E 037°49'0 0.0
2017-Dec-12 10:58N 44°42' E 037°49'0 0.0
2017-Dec-12 10:28N 44°42' E 037°49'0 0.0
2017-Dec-12 09:58N 44°42' E 037°49'0 0.0
2017-Dec-12 09:28N 44°42' E 037°49'0 0.0
2017-Dec-12 08:58N 44°42' E 037°49'0 0.3
2017-Dec-12 08:30N 44°42' E 037°49'2 3.6
2017-Dec-12 08:00N 44°44' E 037°48'0 0.5
2017-Dec-12 07:28N 44°44' E 037°47'0 0.0
2017-Dec-12 06:55N 44°44' E 037°47'0 0.0
2017-Dec-12 06:24N 44°44' E 037°47'0 0.0
2017-Dec-12 06:00N 44°44' E 037°47'0 0.0
2017-Dec-12 05:30N 44°44' E 037°47'0 0.0
2017-Dec-12 05:00N 44°44' E 037°47'0 0.0
2017-Dec-12 04:30N 44°44' E 037°47'0 0.0
2017-Dec-12 04:00N 44°44' E 037°47'0 0.0
2017-Dec-12 03:30N 44°44' E 037°47'0 0.0
2017-Dec-12 03:00N 44°44' E 037°47'0 0.0
2017-Dec-12 02:30N 44°44' E 037°47'0 0.0
2017-Dec-12 02:00N 44°44' E 037°47'0 0.0
2017-Dec-12 01:30N 44°44' E 037°47'0 0.0
2017-Dec-12 01:00N 44°44' E 037°47'0 0.0
2017-Dec-12 00:30N 44°44' E 037°47'0 0.0
2017-Dec-12 00:00N 44°44' E 037°47'0 0.0
2017-Dec-11 23:30N 44°44' E 037°47'0 0.0
2017-Dec-11 23:00N 44°44' E 037°47'0 0.0
2017-Dec-11 22:30N 44°44' E 037°47'0 0.0
2017-Dec-11 22:00N 44°44' E 037°47'0 0.0
2017-Dec-11 21:30N 44°44' E 037°47'0 0.0
2017-Dec-11 21:00N 44°44' E 037°47'0 0.0
2017-Dec-11 20:30N 44°44' E 037°47'0 0.0
2017-Dec-11 20:00N 44°44' E 037°47'0 0.0
2017-Dec-11 19:30N 44°44' E 037°47'0 0.0
2017-Dec-11 19:00N 44°44' E 037°47'0 0.0
2017-Dec-11 18:30N 44°44' E 037°47'0 0.0
2017-Dec-11 18:00N 44°44' E 037°47'0 0.0
2017-Dec-11 17:30N 44°44' E 037°47'0 0.0
2017-Dec-11 17:00N 44°44' E 037°47'0 0.0
2017-Dec-11 16:30N 44°44' E 037°47'0 0.0
2017-Dec-11 16:00N 44°44' E 037°47'0 0.0
2017-Dec-11 15:30N 44°44' E 037°47'0 0.0
2017-Dec-11 15:00N 44°44' E 037°47'0 0.0
2017-Dec-11 14:30N 44°44' E 037°47'0 0.0
2017-Dec-11 14:00N 44°44' E 037°47'0 0.1
2017-Dec-11 13:30N 44°44' E 037°47'2 3.3
2017-Dec-11 13:00N 44°42' E 037°48'0 0.9
2017-Dec-11 12:30N 44°42' E 037°49'0 0.0
2017-Dec-11 12:00N 44°42' E 037°49'0 0.0
2017-Dec-11 11:30N 44°42' E 037°49'0 0.0
2017-Dec-11 11:00N 44°42' E 037°49'0 0.0
2017-Dec-11 10:30N 44°42' E 037°49'0 0.0
2017-Dec-11 10:00N 44°42' E 037°49'0 0.0
2017-Dec-11 09:30N 44°42' E 037°49'0 0.0
2017-Dec-11 09:00N 44°42' E 037°49'0 0.1
2017-Dec-11 08:30N 44°42' E 037°48'0 0.0
2017-Dec-11 08:00N 44°42' E 037°48'0 0.0
2017-Dec-11 07:30N 44°42' E 037°48'0 0.2
2017-Dec-11 07:00N 44°42' E 037°49'0 0.1
2017-Dec-11 06:30N 44°42' E 037°49'0 0.1
2017-Dec-11 06:00N 44°42' E 037°49'0 0.0
2017-Dec-11 05:30N 44°42' E 037°49'0 0.1
2017-Dec-11 05:00N 44°42' E 037°49'0 0.0
2017-Dec-11 04:30N 44°42' E 037°49'0 0.1
2017-Dec-11 04:00N 44°42' E 037°49'0 0.0
2017-Dec-11 03:27N 44°42' E 037°49'0 0.0
2017-Dec-11 03:00N 44°42' E 037°49'0 0.0
2017-Dec-11 02:30N 44°42' E 037°49'0 0.0
2017-Dec-11 02:00N 44°42' E 037°49'0 0.0
2017-Dec-11 01:30N 44°42' E 037°49'0 0.0
2017-Dec-11 01:00N 44°42' E 037°49'0 0.0
2017-Dec-11 00:30N 44°42' E 037°49'0 0.0
2017-Dec-11 00:00N 44°42' E 037°49'0 0.0
2017-Dec-10 23:30N 44°42' E 037°49'0 0.2
2017-Dec-10 23:00N 44°42' E 037°49'0 0.0
2017-Dec-10 22:30N 44°42' E 037°49'0 0.0
2017-Dec-10 22:00N 44°42' E 037°49'0 0.0
2017-Dec-10 21:30N 44°42' E 037°49'0 0.0
2017-Dec-10 21:00N 44°42' E 037°49'0 0.0
2017-Dec-10 20:12N 44°42' E 037°49'0 0.1
2017-Dec-10 20:00N 44°42' E 037°49'0 0.0
2017-Dec-10 19:30N 44°42' E 037°49'0 0.0
2017-Dec-10 19:00N 44°42' E 037°49'0 0.0
2017-Dec-10 18:30N 44°42' E 037°49'0 0.0
2017-Dec-10 18:00N 44°42' E 037°49'0 0.1
2017-Dec-10 17:30N 44°42' E 037°48'0 0.0
2017-Dec-10 17:00N 44°42' E 037°48'0 0.0
2017-Dec-10 16:30N 44°42' E 037°48'0 0.0
2017-Dec-10 16:00N 44°42' E 037°48'0 0.0
2017-Dec-10 15:30N 44°42' E 037°48'0 0.0
2017-Dec-10 15:00N 44°42' E 037°48'0 0.0
2017-Dec-10 14:30N 44°42' E 037°48'0 0.0
2017-Dec-10 14:00N 44°42' E 037°48'0 0.0
2017-Dec-10 13:30N 44°42' E 037°48'0 0.0
2017-Dec-10 13:00N 44°42' E 037°48'0 0.0
2017-Dec-10 12:30N 44°42' E 037°48'0 0.0
2017-Dec-10 12:00N 44°42' E 037°48'0 0.0
2017-Dec-10 11:30N 44°42' E 037°48'0 0.0
2017-Dec-10 11:00N 44°42' E 037°48'0 0.0
2017-Dec-10 10:30N 44°42' E 037°48'0 0.0
2017-Dec-10 10:00N 44°42' E 037°48'0 0.0
2017-Dec-10 09:30N 44°42' E 037°48'0 0.0
2017-Dec-10 09:00N 44°42' E 037°48'0 0.0
2017-Dec-10 08:30N 44°42' E 037°48'0 0.0
2017-Dec-10 08:00N 44°42' E 037°48'0 0.0
2017-Dec-10 07:30N 44°42' E 037°48'0 0.0
2017-Dec-10 07:00N 44°42' E 037°48'0 0.0
2017-Dec-10 06:30N 44°42' E 037°48'0 0.0
2017-Dec-10 06:00N 44°42' E 037°48'0 0.0
2017-Dec-10 05:30N 44°42' E 037°48'0 0.0
2017-Dec-10 05:00N 44°42' E 037°48'0 0.0
2017-Dec-10 04:30N 44°42' E 037°48'0 0.0
2017-Dec-10 04:00N 44°42' E 037°48'0 0.0
2017-Dec-10 03:30N 44°42' E 037°48'0 0.0
2017-Dec-10 03:00N 44°42' E 037°48'0 0.0
2017-Dec-10 02:30N 44°42' E 037°48'0 0.0
2017-Dec-10 02:00N 44°42' E 037°48'0 0.0
2017-Dec-10 01:30N 44°42' E 037°48'0 0.0
2017-Dec-10 01:00N 44°42' E 037°48'0 0.0
2017-Dec-10 00:30N 44°42' E 037°48'0 0.0
2017-Dec-10 00:00N 44°42' E 037°48'0 0.0
2017-Dec-09 23:30N 44°42' E 037°48'0 0.0
2017-Dec-09 23:00N 44°42' E 037°48'0 0.0
2017-Dec-09 22:30N 44°42' E 037°48'0 0.0
2017-Dec-09 21:24N 44°42' E 037°48'0 0.0
2017-Dec-09 21:00N 44°42' E 037°48'0 0.0
2017-Dec-09 20:30N 44°42' E 037°48'0 0.0
2017-Dec-09 20:00N 44°42' E 037°48'0 0.0
2017-Dec-09 19:30N 44°42' E 037°48'0 0.0
2017-Dec-09 19:00N 44°42' E 037°48'0 0.0
2017-Dec-09 18:30N 44°42' E 037°48'0 0.0
2017-Dec-09 18:00N 44°42' E 037°48'0 0.0
2017-Dec-09 17:30N 44°42' E 037°48'0 0.0
2017-Dec-09 17:00N 44°42' E 037°48'0 0.0
2017-Dec-09 16:30N 44°42' E 037°48'0 0.0
2017-Dec-09 16:00N 44°42' E 037°48'0 0.0
2017-Dec-09 15:30N 44°42' E 037°48'0 0.0
2017-Dec-09 15:00N 44°42' E 037°48'0 0.0
2017-Dec-09 14:30N 44°42' E 037°48'0 0.0
2017-Dec-09 14:00N 44°42' E 037°48'0 0.0
2017-Dec-09 13:30N 44°42' E 037°48'0 0.0
2017-Dec-09 13:00N 44°42' E 037°48'0 0.0
2017-Dec-09 12:30N 44°42' E 037°48'0 0.0
2017-Dec-09 12:00N 44°42' E 037°48'0 0.0
2017-Dec-09 11:30N 44°42' E 037°48'0 0.0
2017-Dec-09 11:00N 44°42' E 037°48'0 0.0
2017-Dec-09 10:30N 44°42' E 037°48'0 0.0
2017-Dec-09 10:00N 44°42' E 037°48'0 0.0
2017-Dec-09 09:30N 44°42' E 037°48'0 0.0
2017-Dec-09 09:00N 44°42' E 037°48'0 0.0
2017-Dec-09 08:30N 44°42' E 037°48'0 0.0
2017-Dec-09 08:00N 44°42' E 037°48'0 0.0
2017-Dec-09 07:30N 44°42' E 037°48'0 0.0
2017-Dec-09 07:00N 44°42' E 037°48'0 0.0
2017-Dec-09 06:30N 44°42' E 037°49'0 0.0
2017-Dec-09 06:00N 44°42' E 037°48'0 0.0
2017-Dec-09 05:30N 44°42' E 037°49'0 0.0
2017-Dec-09 05:00N 44°42' E 037°49'0 0.0
2017-Dec-09 04:30N 44°42' E 037°49'0 0.0
2017-Dec-09 04:00N 44°42' E 037°49'0 0.0
2017-Dec-09 03:30N 44°42' E 037°49'0 0.0
2017-Dec-09 03:00N 44°42' E 037°49'0 0.0
2017-Dec-09 02:30N 44°42' E 037°48'0 0.0
2017-Dec-09 02:00N 44°42' E 037°49'0 0.1
2017-Dec-09 01:30N 44°42' E 037°49'0 0.0
2017-Dec-09 01:00N 44°42' E 037°49'0 0.0
2017-Dec-09 00:30N 44°42' E 037°49'0 0.0
2017-Dec-09 00:00N 44°42' E 037°49'0 0.0
2017-Dec-08 23:30N 44°42' E 037°49'0 0.0
2017-Dec-08 23:00N 44°42' E 037°49'0 0.0
2017-Dec-08 22:30N 44°42' E 037°49'0 0.0
2017-Dec-08 21:57N 44°42' E 037°49'0 0.0
2017-Dec-08 21:30N 44°42' E 037°49'0 0.0
2017-Dec-08 21:00N 44°42' E 037°49'0 0.0
2017-Dec-08 20:30N 44°42' E 037°49'0 0.0
2017-Dec-08 20:00N 44°42' E 037°49'0 0.0
2017-Dec-08 19:30N 44°42' E 037°49'0 0.0
2017-Dec-08 19:00N 44°42' E 037°49'0 0.0
2017-Dec-08 18:30N 44°42' E 037°49'0 0.0
2017-Dec-08 18:00N 44°42' E 037°49'0 0.0
2017-Dec-08 17:30N 44°42' E 037°49'0 0.0
2017-Dec-08 16:54N 44°42' E 037°49'0 0.0
2017-Dec-08 16:30N 44°42' E 037°49'0 0.0
2017-Dec-08 16:00N 44°42' E 037°49'0 0.0
2017-Dec-08 15:30N 44°42' E 037°49'0 0.0
2017-Dec-08 15:00N 44°42' E 037°49'0 0.0
2017-Dec-08 14:30N 44°42' E 037°49'0 0.2
2017-Dec-08 14:00N 44°42' E 037°48'0 0.0
2017-Dec-08 13:30N 44°42' E 037°48'0 0.1
2017-Dec-08 13:00N 44°42' E 037°49'0 0.0
2017-Dec-08 12:30N 44°42' E 037°49'0 0.1
2017-Dec-08 12:00N 44°42' E 037°49'0 0.0
2017-Dec-08 11:30N 44°42' E 037°48'0 0.0
2017-Dec-08 11:00N 44°42' E 037°49'0 0.0
2017-Dec-08 10:30N 44°42' E 037°48'0 0.1
2017-Dec-08 10:00N 44°42' E 037°48'0 0.0
2017-Dec-08 09:30N 44°42' E 037°49'0 0.0
2017-Dec-08 09:00N 44°42' E 037°49'0 0.0
2017-Dec-08 08:30N 44°42' E 037°49'0 0.0
2017-Dec-08 08:00N 44°42' E 037°49'0 0.0
2017-Dec-08 07:30N 44°42' E 037°49'0 0.0
2017-Dec-08 07:00N 44°42' E 037°49'0 0.1
2017-Dec-08 06:30N 44°42' E 037°49'0 0.0
2017-Dec-08 06:00N 44°42' E 037°49'0 0.0
2017-Dec-08 05:30N 44°42' E 037°49'0 0.0
2017-Dec-08 05:00N 44°42' E 037°49'0 0.0
2017-Dec-08 04:30N 44°42' E 037°49'0 0.0
2017-Dec-08 04:00N 44°42' E 037°49'0 0.0
2017-Dec-08 03:30N 44°42' E 037°49'0 0.0
2017-Dec-08 03:00N 44°42' E 037°49'0 0.0
2017-Dec-08 02:30N 44°42' E 037°49'0 0.0
2017-Dec-08 02:00N 44°42' E 037°49'0 0.0
2017-Dec-08 01:30N 44°42' E 037°49'0 0.0
2017-Dec-08 01:00N 44°42' E 037°49'0 0.0
2017-Dec-08 00:30N 44°42' E 037°49'0 0.0
2017-Dec-08 00:00N 44°42' E 037°49'0 0.0
2017-Dec-07 23:30N 44°42' E 037°49'0 0.0
2017-Dec-07 23:00N 44°42' E 037°49'0 0.0
2017-Dec-07 22:30N 44°42' E 037°49'0 0.1
2017-Dec-07 22:00N 44°42' E 037°49'0 0.1
2017-Dec-07 21:30N 44°42' E 037°49'0 0.0
2017-Dec-07 21:00N 44°42' E 037°49'0 0.1
2017-Dec-07 20:30N 44°42' E 037°49'0 0.0
2017-Dec-07 20:00N 44°42' E 037°49'0 0.0
2017-Dec-07 19:30N 44°42' E 037°49'0 0.0
2017-Dec-07 19:00N 44°42' E 037°49'0 0.0
2017-Dec-07 18:30N 44°42' E 037°49'0 0.0
2017-Dec-07 18:00N 44°42' E 037°49'0 0.0
2017-Dec-07 17:30N 44°42' E 037°49'0 0.0
2017-Dec-07 17:00N 44°42' E 037°49'0 0.0
2017-Dec-07 16:30N 44°42' E 037°49'0 0.0
2017-Dec-07 16:00N 44°42' E 037°49'0 0.0
2017-Dec-07 15:30N 44°42' E 037°49'0 0.0
2017-Dec-07 14:57N 44°42' E 037°49'0 0.7
2017-Dec-07 14:30N 44°42' E 037°49'3 5.2
2017-Dec-07 14:00N 44°39' E 037°50'4 7.0
2017-Dec-07 13:30N 44°37' E 037°46'4 7.1
2017-Dec-07 13:00N 44°35' E 037°41'4 7.6
2017-Dec-07 12:30N 44°36' E 037°36'5 7.4
2017-Dec-07 11:53N 44°37' E 037°30'51 6.6
2017-Dec-07 04:10N 45°08' E 036°32'1 4.4
2017-Dec-07 04:00N 45°09' E 036°33'  

Dump ship's entire track history